createdAt,value
2023-01-21T00:01:11.962Z,1.00
2023-01-21T00:03:39.155Z,1.00
2023-01-21T00:06:06.718Z,1.00
2023-01-21T00:08:33.899Z,1.00
2023-01-21T00:11:14.699Z,1.00
2023-01-21T00:13:43.752Z,1.00
2023-01-21T00:16:12.927Z,1.00
2023-01-21T00:18:40.300Z,1.00
2023-01-21T00:21:07.498Z,1.00
2023-01-21T00:23:34.578Z,1.00
2023-01-21T00:26:05.153Z,1.00
2023-01-21T00:28:35.248Z,1.00
2023-01-21T00:31:05.647Z,1.00
2023-01-21T00:33:33.867Z,1.00
2023-01-21T00:36:09.747Z,1.00
2023-01-21T00:38:37.091Z,1.00
2023-01-21T00:41:10.460Z,1.00
2023-01-21T00:43:37.602Z,1.00
2023-01-21T00:46:04.979Z,1.00
2023-01-21T00:48:32.715Z,1.00
2023-01-21T00:51:02.851Z,1.00
2023-01-21T00:53:32.523Z,1.00
2023-01-21T00:56:05.158Z,1.00
2023-01-21T00:58:33.025Z,1.00
2023-01-21T01:01:09.846Z,1.00
2023-01-21T01:03:38.298Z,1.00
2023-01-21T01:06:11.237Z,1.00
2023-01-21T01:08:38.501Z,1.00
2023-01-21T01:11:05.919Z,1.00
2023-01-21T01:13:35.821Z,1.00
2023-01-21T01:16:04.068Z,1.00
2023-01-21T01:18:33.873Z,1.00
2023-01-21T01:21:01.575Z,1.00
2023-01-21T01:23:29.403Z,1.00
2023-01-21T01:26:03.201Z,1.00
2023-01-21T01:28:31.821Z,1.00
2023-01-21T01:31:00.052Z,1.00
2023-01-21T01:33:27.764Z,1.00
2023-01-21T01:35:55.041Z,1.00
2023-01-21T01:38:23.463Z,1.00
2023-01-21T01:40:52.693Z,1.00
2023-01-21T01:43:25.591Z,1.00
2023-01-21T01:45:53.375Z,1.00
2023-01-21T01:48:31.815Z,1.00
2023-01-21T01:51:02.888Z,1.00
2023-01-21T01:53:31.952Z,1.00
2023-01-21T01:56:00.120Z,1.00
2023-01-21T01:58:28.602Z,1.00
2023-01-21T02:00:55.718Z,1.00
2023-01-21T02:03:42.262Z,1.00
2023-01-21T02:06:09.348Z,1.00
2023-01-21T02:08:36.643Z,1.00
2023-01-21T02:11:18.046Z,1.00
2023-01-21T02:13:58.870Z,1.00
2023-01-21T02:16:34.326Z,1.00
2023-01-21T02:19:29.754Z,1.00
2023-01-21T02:22:07.473Z,1.00
2023-01-21T02:25:05.489Z,1.00
2023-01-21T02:27:41.754Z,1.00
2023-01-21T02:30:08.894Z,1.00
2023-01-21T02:33:17.651Z,1.00
2023-01-21T02:36:11.102Z,1.00
2023-01-21T02:38:57.705Z,1.00
2023-01-21T02:41:31.008Z,1.00
2023-01-21T02:44:25.198Z,1.00
2023-01-21T02:47:25.144Z,1.00
2023-01-21T02:50:11.094Z,1.00
2023-01-21T02:52:38.430Z,1.00
2023-01-21T02:55:06.759Z,1.00
2023-01-21T02:57:46.433Z,1.00
2023-01-21T03:00:22.918Z,1.00
2023-01-21T03:03:11.465Z,1.00
2023-01-21T03:06:08.261Z,1.00
2023-01-21T03:08:55.622Z,1.00
2023-01-21T03:11:23.479Z,1.00
2023-01-21T03:14:19.826Z,1.00
2023-01-21T03:17:24.725Z,1.00
2023-01-21T03:20:15.384Z,1.00
2023-01-21T03:22:44.571Z,1.00
2023-01-21T03:25:14.057Z,1.00
2023-01-21T03:27:44.815Z,1.00
2023-01-21T03:30:16.208Z,1.00
2023-01-21T03:32:49.528Z,1.00
2023-01-21T03:35:39.647Z,1.00
2023-01-21T03:38:11.559Z,1.00
2023-01-21T03:40:44.994Z,1.00
2023-01-21T03:43:12.161Z,1.00
2023-01-21T03:46:05.112Z,1.00
2023-01-21T03:48:41.657Z,1.00
2023-01-21T03:51:27.789Z,1.00
2023-01-21T03:53:59.345Z,1.00
2023-01-21T03:56:28.052Z,1.00
2023-01-21T03:58:55.807Z,1.00
2023-01-21T04:01:23.223Z,1.00
2023-01-21T04:03:50.361Z,1.00
2023-01-21T04:06:20.935Z,1.00
2023-01-21T04:08:48.282Z,1.00
2023-01-21T04:11:16.262Z,1.00
2023-01-21T04:13:43.381Z,1.00
2023-01-21T04:16:10.505Z,1.00
2023-01-21T04:18:37.807Z,1.00
2023-01-21T04:21:05.069Z,1.00
2023-01-21T04:23:32.246Z,1.00
2023-01-21T04:25:59.417Z,1.00
2023-01-21T04:28:26.569Z,1.00
2023-01-21T04:30:53.770Z,1.00
2023-01-21T04:33:22.081Z,1.00
2023-01-21T04:35:49.223Z,1.00
2023-01-21T04:38:16.483Z,1.00
2023-01-21T04:40:43.957Z,1.00
2023-01-21T04:43:11.120Z,1.00
2023-01-21T04:45:38.217Z,1.00
2023-01-21T04:48:05.511Z,1.00
2023-01-21T04:50:33.077Z,1.00
2023-01-21T04:53:00.145Z,1.00
2023-01-21T04:55:27.293Z,1.00
2023-01-21T04:57:54.449Z,1.00
2023-01-21T05:00:21.924Z,1.00
2023-01-21T05:02:49.073Z,1.00
2023-01-21T05:05:16.273Z,1.00
2023-01-21T05:07:43.620Z,1.00
2023-01-21T05:10:17.690Z,1.00
2023-01-21T05:12:45.127Z,1.00
2023-01-21T05:15:12.348Z,1.00
2023-01-21T05:17:39.446Z,1.00
2023-01-21T05:20:06.989Z,1.00
2023-01-21T05:22:34.208Z,1.00
2023-01-21T05:25:01.399Z,1.00
2023-01-21T05:27:29.062Z,1.00
2023-01-21T05:29:57.285Z,1.00
2023-01-21T05:32:24.631Z,1.00
2023-01-21T05:34:51.730Z,1.00
2023-01-21T05:37:19.020Z,1.00
2023-01-21T05:39:46.165Z,1.00
2023-01-21T05:42:13.334Z,1.00
2023-01-21T05:44:40.510Z,1.00
2023-01-21T05:47:08.985Z,1.00
2023-01-21T05:49:36.286Z,1.00
2023-01-21T05:52:03.552Z,1.00
2023-01-21T05:54:31.820Z,1.00
2023-01-21T05:56:58.918Z,1.00
2023-01-21T05:59:26.132Z,1.00
2023-01-21T06:01:53.240Z,1.00
2023-01-21T06:04:23.057Z,1.00
2023-01-21T06:06:50.986Z,1.00
2023-01-21T06:09:18.139Z,1.00
2023-01-21T06:11:45.244Z,1.00
2023-01-21T06:14:12.707Z,1.00
2023-01-21T06:16:39.905Z,1.00
2023-01-21T06:19:06.998Z,1.00
2023-01-21T06:21:34.112Z,1.00
2023-01-21T06:24:02.688Z,1.00
2023-01-21T06:26:29.794Z,1.00
2023-01-21T06:28:57.859Z,1.00
2023-01-21T06:31:25.161Z,1.00
2023-01-21T06:33:52.542Z,1.00
2023-01-21T06:36:19.699Z,1.00
2023-01-21T06:38:46.836Z,1.00
2023-01-21T06:41:14.053Z,1.00
2023-01-21T06:43:41.189Z,1.00
2023-01-21T06:46:08.405Z,1.00
2023-01-21T06:48:35.622Z,1.00
2023-01-21T06:51:03.413Z,1.00
2023-01-21T06:53:30.619Z,1.00
2023-01-21T06:55:57.680Z,1.00
2023-01-21T06:58:24.914Z,1.00
2023-01-21T07:00:51.976Z,1.00
2023-01-21T07:03:19.124Z,1.00
2023-01-21T07:05:46.305Z,1.00
2023-01-21T07:08:13.451Z,1.00
2023-01-21T07:10:40.603Z,1.00
2023-01-21T07:13:07.684Z,1.00
2023-01-21T07:15:34.852Z,1.00
2023-01-21T07:18:02.008Z,1.00
2023-01-21T07:20:29.238Z,1.00
2023-01-21T07:22:56.358Z,1.00
2023-01-21T07:25:23.477Z,1.00
2023-01-21T07:27:50.555Z,1.00
2023-01-21T07:30:20.138Z,1.00
2023-01-21T07:32:48.022Z,1.00
2023-01-21T07:35:15.678Z,1.00
2023-01-21T07:37:43.263Z,1.00
2023-01-21T07:40:10.967Z,1.00
2023-01-21T07:42:38.051Z,99.90
2023-01-21T07:45:05.627Z,99.90
2023-01-21T07:47:32.732Z,99.90
2023-01-21T07:50:05.140Z,99.90
2023-01-21T07:52:32.844Z,99.90
2023-01-21T07:55:00.036Z,99.90
2023-01-21T07:57:27.184Z,99.90
2023-01-21T07:59:54.515Z,99.90
2023-01-21T08:02:21.864Z,99.90
2023-01-21T08:04:49.169Z,99.90
2023-01-21T08:07:16.758Z,99.90
2023-01-21T08:09:44.000Z,99.90
2023-01-21T08:12:11.405Z,99.90
2023-01-21T08:14:41.144Z,99.90
2023-01-21T08:17:08.353Z,99.90
2023-01-21T08:19:35.489Z,99.90
2023-01-21T08:22:02.738Z,99.90
2023-01-21T08:24:29.843Z,99.90
2023-01-21T08:27:00.713Z,99.90
2023-01-21T08:29:28.168Z,99.90
2023-01-21T08:31:55.483Z,99.90
2023-01-21T08:34:22.778Z,99.90
2023-01-21T08:36:49.905Z,99.90
2023-01-21T08:39:17.084Z,99.90
2023-01-21T08:41:46.209Z,99.90
2023-01-21T08:44:13.465Z,99.90
2023-01-21T08:46:40.659Z,99.90
2023-01-21T08:49:07.929Z,99.90
2023-01-21T08:51:35.065Z,99.90
2023-01-21T08:54:02.308Z,99.90
2023-01-21T08:56:29.381Z,99.90
2023-01-21T08:58:58.060Z,99.90
2023-01-21T09:01:26.594Z,99.90
2023-01-21T09:03:58.179Z,99.90
2023-01-21T09:06:27.647Z,99.90
2023-01-21T09:08:56.094Z,99.90
2023-01-21T09:11:23.352Z,99.90
2023-01-21T09:13:50.559Z,99.90
2023-01-21T09:16:20.900Z,99.90
2023-01-21T09:18:49.129Z,99.90
2023-01-21T09:21:17.031Z,99.90
2023-01-21T09:23:44.625Z,99.90
2023-01-21T09:26:18.334Z,99.90
2023-01-21T09:28:47.963Z,99.90
2023-01-21T09:31:16.983Z,99.90
2023-01-21T09:33:47.070Z,99.90
2023-01-21T09:36:17.461Z,99.90
2023-01-21T09:38:46.202Z,99.90
2023-01-21T09:41:35.212Z,99.90
2023-01-21T09:44:05.142Z,99.90
2023-01-21T09:46:51.609Z,99.90
2023-01-21T09:49:28.405Z,99.90
2023-01-21T09:51:58.273Z,99.90
2023-01-21T09:54:34.114Z,99.90
2023-01-21T09:57:07.308Z,99.90
2023-01-21T09:59:34.392Z,99.90
2023-01-21T10:02:05.272Z,91.00
2023-01-21T10:04:49.293Z,65.80
2023-01-21T10:07:28.042Z,48.80
2023-01-21T10:10:19.460Z,30.10
2023-01-21T10:12:46.563Z,23.60
2023-01-21T10:15:29.191Z,15.30
2023-01-21T10:18:02.069Z,25.30
2023-01-21T10:20:57.520Z,28.30
2023-01-21T10:23:44.178Z,28.80
2023-01-21T10:26:15.173Z,42.80
2023-01-21T10:28:51.037Z,64.30
2023-01-21T10:31:28.659Z,70.80
2023-01-21T10:33:56.968Z,73.70
2023-01-21T10:36:44.617Z,69.70
2023-01-21T10:39:28.328Z,64.50
2023-01-21T10:42:27.798Z,57.70
2023-01-21T10:45:23.809Z,62.70
2023-01-21T10:48:02.725Z,40.50
2023-01-21T10:50:32.894Z,32.80
2023-01-21T10:53:18.067Z,19.00
2023-01-21T10:55:59.480Z,22.70
2023-01-21T10:58:48.516Z,16.30
2023-01-21T11:01:22.033Z,12.80
2023-01-21T11:03:53.721Z,16.80
2023-01-21T11:06:23.246Z,19.10
2023-01-21T11:08:57.140Z,20.30
2023-01-21T11:11:28.258Z,31.60
2023-01-21T11:13:56.009Z,51.20
2023-01-21T11:16:43.717Z,86.10
2023-01-21T11:19:26.376Z,23.80
2023-01-21T11:22:18.144Z,22.60
2023-01-21T11:24:50.551Z,19.90
2023-01-21T11:27:32.733Z,34.40
2023-01-21T11:29:59.957Z,31.30
2023-01-21T11:32:29.152Z,28.00
2023-01-21T11:35:02.305Z,20.20
2023-01-21T11:37:31.093Z,23.90
2023-01-21T11:40:02.791Z,27.10
2023-01-21T11:42:29.984Z,27.90
2023-01-21T11:45:05.407Z,35.00
2023-01-21T11:47:49.930Z,35.80
2023-01-21T11:50:23.261Z,29.10
2023-01-21T11:53:17.649Z,14.90
2023-01-21T11:55:53.858Z,17.30
2023-01-21T11:58:32.124Z,15.60
2023-01-21T12:01:09.651Z,8.70
2023-01-21T12:03:44.937Z,5.80
2023-01-21T12:06:23.572Z,11.60
2023-01-21T12:08:53.973Z,7.90
2023-01-21T12:11:24.661Z,7.20
2023-01-21T12:14:25.156Z,24.10
2023-01-21T12:16:58.320Z,19.70
2023-01-21T12:19:44.186Z,20.70
2023-01-21T12:22:32.197Z,27.30
2023-01-21T12:25:14.400Z,25.00
2023-01-21T12:28:02.072Z,43.30
2023-01-21T12:31:06.414Z,51.10
2023-01-21T12:33:33.532Z,68.70
2023-01-21T12:36:26.725Z,55.10
2023-01-21T12:39:14.070Z,61.70
2023-01-21T12:41:44.767Z,70.30
2023-01-21T12:44:14.729Z,83.10
2023-01-21T12:46:47.620Z,68.40
2023-01-21T12:49:28.058Z,71.90
2023-01-21T12:52:10.476Z,82.40
2023-01-21T12:54:48.796Z,89.80
2023-01-21T12:57:27.781Z,83.80
2023-01-21T13:00:05.098Z,85.30
2023-01-21T13:02:46.683Z,95.40
2023-01-21T13:05:38.081Z,98.40
2023-01-21T13:08:42.310Z,97.50
2023-01-21T13:11:22.534Z,99.40
2023-01-21T13:13:58.258Z,99.90
2023-01-21T13:16:26.862Z,98.90
2023-01-21T13:18:56.876Z,97.80
2023-01-21T13:21:39.291Z,96.40
2023-01-21T13:24:21.425Z,97.50
2023-01-21T13:27:30.391Z,99.90
2023-01-21T13:30:24.492Z,99.90
2023-01-21T13:32:54.204Z,99.90
2023-01-21T13:35:36.187Z,99.90
2023-01-21T13:38:22.342Z,99.90
2023-01-21T13:41:16.782Z,99.90
2023-01-21T13:43:57.915Z,99.90
2023-01-21T13:46:46.580Z,99.90
2023-01-21T13:49:34.655Z,99.90
2023-01-21T13:52:33.107Z,99.90
2023-01-21T13:55:29.770Z,99.90
2023-01-21T13:58:06.563Z,99.90
2023-01-21T14:00:51.317Z,99.90
2023-01-21T14:03:30.274Z,99.90
2023-01-21T14:06:11.290Z,99.90
2023-01-21T14:08:54.875Z,99.90
2023-01-21T14:11:27.568Z,99.90
2023-01-21T14:14:10.638Z,99.90
2023-01-21T14:16:46.906Z,99.90
2023-01-21T14:19:56.009Z,99.90
2023-01-21T14:22:35.168Z,99.90
2023-01-21T14:25:29.349Z,99.90
2023-01-21T14:28:05.437Z,99.90
2023-01-21T14:30:43.862Z,99.90
2023-01-21T14:33:22.248Z,99.90
2023-01-21T14:36:01.411Z,99.90
2023-01-21T14:38:49.551Z,99.90
2023-01-21T14:41:16.774Z,99.90
2023-01-21T14:43:49.454Z,99.90
2023-01-21T14:46:34.255Z,99.90
2023-01-21T14:49:08.450Z,99.90
2023-01-21T14:51:50.291Z,99.90
2023-01-21T14:54:26.304Z,99.90
2023-01-21T14:57:10.251Z,99.90
2023-01-21T14:59:46.562Z,99.90
2023-01-21T15:02:42.122Z,99.90
2023-01-21T15:05:26.614Z,99.90
2023-01-21T15:08:08.954Z,99.90
2023-01-21T15:10:39.181Z,99.90
2023-01-21T15:13:26.891Z,99.90
2023-01-21T15:16:17.722Z,99.90
2023-01-21T15:19:05.890Z,99.90
2023-01-21T15:21:44.945Z,99.90
2023-01-21T15:24:41.067Z,99.90
2023-01-21T15:27:21.867Z,99.90
2023-01-21T15:29:55.331Z,99.90
2023-01-21T15:32:38.896Z,99.90
2023-01-21T15:35:25.673Z,99.90
2023-01-21T15:38:02.117Z,99.90
2023-01-21T15:40:41.451Z,99.90
2023-01-21T15:43:25.507Z,99.90
2023-01-21T15:46:20.450Z,99.90
2023-01-21T15:49:12.191Z,99.90
2023-01-21T15:52:17.222Z,99.90
2023-01-21T15:55:08.816Z,99.90
2023-01-21T15:57:45.536Z,99.90
2023-01-21T16:00:31.195Z,99.90
2023-01-21T16:03:20.437Z,99.90
2023-01-21T16:06:29.901Z,99.90
2023-01-21T16:09:08.315Z,99.90
2023-01-21T16:12:01.152Z,99.90
2023-01-21T16:15:00.275Z,99.90
2023-01-21T16:17:46.356Z,99.90
2023-01-21T16:20:14.409Z,99.90
2023-01-21T16:22:45.515Z,99.90
2023-01-21T16:25:19.178Z,99.90
2023-01-21T16:27:49.402Z,99.90
2023-01-21T16:30:36.082Z,99.90
2023-01-21T16:33:17.093Z,99.90
2023-01-21T16:35:52.677Z,99.90
2023-01-21T16:38:23.767Z,99.90
2023-01-21T16:41:08.576Z,99.90
2023-01-21T16:43:39.518Z,99.90
2023-01-21T16:46:13.745Z,99.90
2023-01-21T16:48:41.348Z,99.90
2023-01-21T16:51:20.723Z,99.90
2023-01-21T16:53:48.518Z,99.90
2023-01-21T16:56:28.726Z,99.90
2023-01-21T16:58:56.404Z,99.90
2023-01-21T17:01:27.058Z,99.90
2023-01-21T17:03:54.699Z,99.90
2023-01-21T17:06:29.546Z,99.90
2023-01-21T17:09:05.236Z,99.90
2023-01-21T17:11:34.307Z,99.90
2023-01-21T17:14:07.485Z,99.90
2023-01-21T17:16:37.165Z,99.90
2023-01-21T17:19:09.077Z,99.90
2023-01-21T17:21:45.494Z,99.90
2023-01-21T17:24:39.388Z,99.90
2023-01-21T17:27:15.185Z,99.90
2023-01-21T17:29:44.710Z,1.00
2023-01-21T17:32:33.570Z,1.00
2023-01-21T17:35:16.754Z,99.90
2023-01-21T17:37:55.231Z,99.90
2023-01-21T17:40:28.875Z,99.90
2023-01-21T17:42:58.254Z,99.90
2023-01-21T17:45:32.050Z,99.90
2023-01-21T17:48:09.714Z,99.90
2023-01-21T17:50:45.532Z,99.90
2023-01-21T17:53:21.599Z,99.90
2023-01-21T17:56:06.806Z,99.90
2023-01-21T17:58:54.159Z,99.90
2023-01-21T18:01:22.379Z,99.90
2023-01-21T18:03:50.147Z,99.90
2023-01-21T18:06:20.710Z,99.90
2023-01-21T18:08:47.935Z,99.90
2023-01-21T18:11:17.520Z,99.90
2023-01-21T18:13:45.136Z,99.90
2023-01-21T18:16:12.972Z,99.90
2023-01-21T18:18:41.242Z,99.90
2023-01-21T18:21:19.035Z,99.90
2023-01-21T18:23:47.340Z,99.90
2023-01-21T18:26:30.730Z,99.90
2023-01-21T18:28:59.788Z,99.90
2023-01-21T18:31:27.753Z,99.90
2023-01-21T18:33:55.592Z,99.90
2023-01-21T18:36:23.047Z,99.90
2023-01-21T18:38:51.126Z,99.90
2023-01-21T18:41:19.134Z,99.90
2023-01-21T18:43:46.949Z,99.90
2023-01-21T18:46:15.065Z,99.90
2023-01-21T18:48:43.414Z,99.90
2023-01-21T18:51:12.580Z,99.90
2023-01-21T18:53:40.238Z,99.90
2023-01-21T18:56:13.399Z,99.90
2023-01-21T18:58:41.387Z,99.90
2023-01-21T19:01:22.116Z,99.90
2023-01-21T19:03:55.368Z,99.90
2023-01-21T19:06:25.630Z,99.90
2023-01-21T19:08:55.594Z,99.90
2023-01-21T19:11:24.637Z,99.90
2023-01-21T19:13:52.292Z,99.90
2023-01-21T19:16:21.106Z,99.90
2023-01-21T19:18:48.992Z,99.90
2023-01-21T19:21:16.675Z,1.00
2023-01-21T19:23:44.474Z,1.00
2023-01-21T19:26:14.490Z,1.00
2023-01-21T19:28:42.392Z,1.00
2023-01-21T19:31:10.486Z,1.00
2023-01-21T19:33:38.564Z,1.00
2023-01-21T19:36:15.140Z,1.00
2023-01-21T19:38:45.605Z,1.00
2023-01-21T19:41:14.342Z,99.90
2023-01-21T19:43:42.460Z,99.90
2023-01-21T19:46:14.399Z,99.90
2023-01-21T19:48:42.248Z,99.90
2023-01-21T19:51:10.727Z,99.90
2023-01-21T19:53:38.618Z,99.90
2023-01-21T19:56:07.493Z,99.90
2023-01-21T19:58:36.381Z,99.90
2023-01-21T20:01:04.650Z,99.90
2023-01-21T20:03:32.570Z,99.90
2023-01-21T20:06:05.244Z,99.90
2023-01-21T20:08:34.552Z,99.90
2023-01-21T20:11:02.612Z,99.90
2023-01-21T20:13:32.923Z,99.90
2023-01-21T20:16:04.142Z,99.90
2023-01-21T20:18:35.152Z,99.90
2023-01-21T20:21:03.270Z,99.90
2023-01-21T20:23:33.258Z,99.90
2023-01-21T20:26:01.756Z,99.90
2023-01-21T20:28:43.697Z,99.90
2023-01-21T20:31:12.808Z,99.90
2023-01-21T20:33:42.529Z,99.90
2023-01-21T20:36:20.043Z,99.90
2023-01-21T20:38:47.652Z,99.90
2023-01-21T20:41:15.751Z,99.90
2023-01-21T20:43:45.158Z,99.90
2023-01-21T20:46:18.997Z,99.90
2023-01-21T20:48:47.259Z,99.90
2023-01-21T20:51:16.522Z,99.90
2023-01-21T20:53:44.380Z,99.90
2023-01-21T20:56:19.140Z,99.90
2023-01-21T20:58:48.709Z,99.90
2023-01-21T21:01:18.389Z,99.90
2023-01-21T21:03:45.715Z,99.90
2023-01-21T21:06:20.540Z,99.90
2023-01-21T21:08:49.723Z,99.90
2023-01-21T21:11:18.467Z,99.90
2023-01-21T21:13:48.837Z,99.90
2023-01-21T21:16:26.861Z,99.90
2023-01-21T21:18:54.714Z,99.90
2023-01-21T21:21:23.825Z,99.90
2023-01-21T21:23:53.209Z,99.90
2023-01-21T21:26:26.899Z,99.90
2023-01-21T21:28:55.761Z,99.90
2023-01-21T21:31:23.966Z,99.90
2023-01-21T21:33:51.331Z,99.90
2023-01-21T21:36:21.219Z,99.90
2023-01-21T21:38:49.840Z,99.90
2023-01-21T21:41:39.094Z,99.90
2023-01-21T21:44:07.209Z,99.90
2023-01-21T21:46:53.604Z,99.90
2023-01-21T21:49:21.189Z,99.90
2023-01-21T21:51:48.734Z,99.90
2023-01-21T21:54:18.828Z,99.90
2023-01-21T21:56:47.267Z,99.90
2023-01-21T21:59:15.738Z,99.90
2023-01-21T22:01:46.571Z,99.90
2023-01-21T22:04:14.092Z,99.90
2023-01-21T22:06:41.462Z,99.90
2023-01-21T22:09:09.607Z,99.90
2023-01-21T22:11:36.878Z,99.90
2023-01-21T22:14:04.545Z,99.90
2023-01-21T22:16:32.906Z,99.90
2023-01-21T22:19:01.311Z,99.90
2023-01-21T22:21:34.181Z,99.90
2023-01-21T22:24:02.982Z,99.90
2023-01-21T22:26:30.314Z,99.90
2023-01-21T22:28:57.705Z,99.90
2023-01-21T22:31:27.621Z,99.90
2023-01-21T22:33:55.302Z,99.90
2023-01-21T22:36:24.765Z,99.90
2023-01-21T22:38:52.512Z,99.90
2023-01-21T22:41:22.332Z,99.90
2023-01-21T22:43:50.538Z,99.90
2023-01-21T22:46:30.373Z,99.90
2023-01-21T22:48:57.853Z,99.90
2023-01-21T22:51:25.156Z,99.90
2023-01-21T22:53:53.453Z,99.90
2023-01-21T22:56:35.389Z,99.90
2023-01-21T22:59:10.610Z,99.90
2023-01-21T23:01:38.375Z,99.90
2023-01-21T23:04:05.650Z,99.90
2023-01-21T23:06:32.860Z,99.90
2023-01-21T23:08:59.978Z,99.90
2023-01-21T23:11:27.170Z,99.90
2023-01-21T23:13:55.471Z,99.90
2023-01-21T23:16:22.976Z,99.90
2023-01-21T23:18:50.165Z,99.90
2023-01-21T23:21:20.760Z,1.00
2023-01-21T23:23:48.910Z,1.00
2023-01-21T23:26:16.647Z,1.00
2023-01-21T23:28:43.784Z,1.00
2023-01-21T23:31:15.171Z,1.00
2023-01-21T23:33:42.553Z,1.00
2023-01-21T23:36:13.369Z,1.00
2023-01-21T23:38:41.626Z,1.00
2023-01-21T23:41:10.842Z,1.00
2023-01-21T23:43:38.010Z,1.00
2023-01-21T23:46:07.501Z,1.00
2023-01-21T23:48:34.669Z,1.00
2023-01-21T23:51:07.004Z,1.00
2023-01-21T23:53:35.056Z,1.00
2023-01-21T23:56:12.565Z,1.00
2023-01-21T23:58:40.088Z,1.00
